Current Conditions
Misty
Conditions



Pressure
29.89 (inHG) - 1012.22 (mb)
Visibility

6.0 (miles) - 9.7 (km)
Temperature
61  °F
Temperature
57  °F
Dewpoint
88  %
 Humidity
Wind Speed
9  mph
8  kts
14  km/h
4.0  m/s
Wind Direction
N
45°
E
90°
135°
S
180°
225°
W
270°
315°
 350°

Due North
Airport Data
KEQY
Charlotte-Monroe Executive Airport
Metar :KEQY 290053Z AUTO 35008KT 6SM BR BKN009 OVC028 16/14 A2989 RMK AO2 SLP129 T01560144
Sun 28th May 20:53 pm
Raw Metar Info
Raw METAR is the most common format in the world for the transmission of observational weather data. It is highly standardized through the International Civil Aviation Organization (ICAO), which allows it to be understood throughout most of the world.
API Info
Data Provided by
https://www.checkwx.com/weather/KEQY

Aviation Weather providing METAR, TAF, AIRMET, SIGMET and OUTLOOK Weather Reports
© Info
CSS/SVG/PHP scripts were developed by weather34.com for use in the weather34 template © 2015-2023

Guide Info provided by Metar-Wikipedia